Aviation Digital Data Service (ADDS)

Output produced by METARs form (0811 UTC 24 May 2018)
found at http://www.aviationweather.gov/adds/metars/
 
LUKK 240800Z 04007KT 360V070 9999 FEW049 25/15 Q1017 R08/D NOSIG
TAF LUKK 240520Z 2406/2506 02010KT 9999 SCT040 
     TEMPO 2410/2417 SCT040CB 
     BECMG 2417/2419 VRB04KT
       
LUBM 240800Z 05008KT 020V090 9999 FEW049 27/10 Q1018 R25/CLRD65
TAF LUBM 240735Z 2407/2415 04010KT 9999 SCT040
       
LUKK 240800Z 04007KT 360V070 9999 FEW049 25/15 Q1017 R08/D NOSIG
TAF LUKK 240520Z 2406/2506 02010KT 9999 SCT040 
     TEMPO 2410/2417 SCT040CB 
     BECMG 2417/2419 VRB04KT